Terminal Aerodrome Forecast
Issued by NWS

Home | Current Version | Previous Version | Text Only | Print | Product List | Glossary On
Versions: 1 2 3 4 5 6 7 8 9 10 11 12 13 14 15 16
000
FTUS45 KFGZ 280500
TAFGCN
TAF
KGCN 280532Z 2806/0106 24005KT P6SM SCT030 OVC050
      TEMPO 2806/2807 1SM -SHSN BR BKN018
     FM280800 25007KT 3SM -SHSN BR SCT018 OVC030
      TEMPO 2808/2812 1SM -SHSN BR BKN015
     FM281500 22014G27KT P6SM SCT020 BKN025 PROB30 2815/2820 3SM
      -SHSN BR BKN020
     FM010200 22014KT P6SM SCT020 BKN035=

USA.gov is the U.S. government's official web portal to all federal, state and local government web resources and services.